Terminal Aerodrome Forecast
Issued by NWS Tallahassee, FL

Home | Current Version | Previous Version | Text Only | Print | Product List | Glossary On
Versions: 1 2 3 4 5 6 7 8 9 10 11 12
323
FTUS42 KTAE 221120
TAFTLH
TAF
KTLH 221120Z 2212/2312 09007KT P6SM BKN250
     FM221400 11007KT P6SM SCT045 BKN250
     FM221800 12007KT P6SM VCSH BKN050 BKN100
     FM230600 13005KT P6SM -TSRA OVC025CB=

USA.gov is the U.S. government's official web portal to all federal, state and local government web resources and services.